Time;durP1;ratioP1;P1;durP2;ratioP2;P2;SDS_P1;SDS_P2;PMS_P1;PMS_P2;Temp;Humidity;BMP_temperature;BMP_pressure;BME280_temperature;BME280_humidity;BME280_pressure;Samples;Min_cycle;Max_cycle;Signal;HPM_P1;HPM_P2
2022/01/04 00:00:38;;;;;;;11.30;5.30;;;;;;;5.68;83.39;98722.18;208096;1316;141287;-74
2022/01/04 00:05:47;;;;;;;9.20;3.70;;;;;;;5.60;83.05;98719.70;208449;1315;140830;-78
2022/01/04 00:10:54;;;;;;;7.70;4.00;;;;;;;5.48;83.38;98714.73;208269;1315;140395;-79
2022/01/04 00:16:00;;;;;;;9.80;4.90;;;;;;;5.45;83.34;98712.84;207122;1318;141133;-77
2022/01/04 00:21:04;;;;;;;12.90;5.10;;;;;;;5.39;83.66;98713.02;207299;1316;235208;-77
2022/01/04 00:26:13;;;;;;;10.10;5.90;;;;;;;5.34;83.93;98708.55;207671;1316;140663;-74
2022/01/04 00:31:19;;;;;;;7.10;5.10;;;;;;;5.33;84.03;98705.89;207003;1316;141756;-76
2022/01/04 00:36:24;;;;;;;12.10;5.10;;;;;;;5.35;84.06;98705.16;207037;1315;141482;-73
2022/01/04 00:41:28;;;;;;;18.50;5.40;;;;;;;5.37;84.07;98693.71;207694;1316;140796;-74
2022/01/04 00:46:31;;;;;;;10.90;4.90;;;;;;;5.30;83.98;98687.95;207288;1316;142236;-79
2022/01/04 00:51:42;;;;;;;8.90;4.90;;;;;;;5.28;83.79;98684.29;207223;1316;141669;-80
2022/01/04 00:56:50;;;;;;;8.20;5.20;;;;;;;5.30;83.89;98683.56;207999;1317;140952;-73
2022/01/04 01:02:02;;;;;;;10.40;5.80;;;;;;;5.31;84.03;98681.08;207059;1318;139170;-73
2022/01/04 01:07:09;;;;;;;9.70;5.80;;;;;;;5.34;84.23;98693.06;207620;1315;141365;-76
2022/01/04 01:12:12;;;;;;;11.50;4.00;;;;;;;5.39;84.30;98697.95;208442;1315;140489;-76
2022/01/04 01:17:16;;;;;;;10.10;3.90;;;;;;;5.42;84.16;98677.83;207749;1316;142014;-73
2022/01/04 01:22:38;;;;;;;6.30;3.50;;;;;;;5.42;84.41;98665.46;206937;1317;140139;-72
2022/01/04 01:28:08;;;;;;;7.60;4.30;;;;;;;5.41;84.95;98651.08;208703;1318;140156;-77
2022/01/04 01:33:16;;;;;;;6.50;4.50;;;;;;;5.49;84.88;98652.38;207683;1316;140593;-76
2022/01/04 01:38:25;;;;;;;8.30;3.30;;;;;;;5.54;84.97;98643.38;208657;1317;142040;-79
2022/01/04 01:43:29;;;;;;;9.80;5.10;;;;;;;5.59;85.00;98639.48;208200;1316;140427;-78
2022/01/04 01:48:33;;;;;;;8.90;4.40;;;;;;;5.63;84.96;98630.95;208177;1316;140978;-77
2022/01/04 01:53:36;;;;;;;11.00;5.10;;;;;;;5.65;84.83;98622.54;208065;1315;141327;-78
2022/01/04 01:58:50;;;;;;;7.70;4.50;;;;;;;5.60;84.79;98612.00;207133;1316;141462;-80
2022/01/04 02:03:52;;;;;;;8.70;4.30;;;;;;;5.51;84.74;98613.66;207911;1316;141673;-80
2022/01/04 02:08:58;;;;;;;11.10;5.20;;;;;;;5.45;84.65;98612.10;208802;1315;142556;-73
2022/01/04 02:14:02;;;;;;;7.90;5.80;;;;;;;5.44;84.84;98612.30;207703;1315;142519;-74
2022/01/04 02:19:07;;;;;;;13.10;6.40;;;;;;;5.39;84.96;98612.54;207218;1316;140590;-69
2022/01/04 02:24:23;;;;;;;11.40;5.10;;;;;;;5.34;84.85;98608.41;207977;1316;143323;-74
2022/01/04 02:29:34;;;;;;;12.20;6.10;;;;;;;5.35;84.90;98606.52;207251;1315;142844;-74
2022/01/04 02:34:39;;;;;;;10.70;6.60;;;;;;;5.36;85.06;98599.52;208205;1316;141068;-73
2022/01/04 02:39:43;;;;;;;8.30;5.20;;;;;;;5.34;85.09;98603.54;206849;1316;139864;-71
2022/01/04 02:44:48;;;;;;;10.40;5.30;;;;;;;5.22;84.69;98591.58;206729;1318;139931;-77
2022/01/04 02:49:56;;;;;;;11.30;6.00;;;;;;;5.15;84.75;98586.27;207561;1318;141713;-72
2022/01/04 02:55:11;;;;;;;16.30;6.60;;;;;;;5.10;84.97;98580.56;206633;1317;140527;-72
2022/01/04 03:00:16;;;;;;;11.80;6.50;;;;;;;5.08;85.25;98584.16;207251;1317;140905;-69
2022/01/04 03:05:22;;;;;;;9.90;6.70;;;;;;;5.09;85.32;98577.89;207830;1318;139844;-68
2022/01/04 03:10:28;;;;;;;12.00;7.40;;;;;;;5.17;85.24;98571.60;207098;1316;141087;-73
2022/01/04 03:15:34;;;;;;;7.60;6.00;;;;;;;5.22;85.44;98561.58;208732;1316;140396;-74
2022/01/04 03:20:50;;;;;;;8.10;5.10;;;;;;;5.26;85.56;98563.06;207501;1315;140559;-80
2022/01/04 03:25:55;;;;;;;9.60;5.70;;;;;;;5.33;85.35;98548.80;208012;1317;143246;-74
2022/01/04 03:30:59;;;;;;;9.10;5.70;;;;;;;5.42;85.51;98538.23;208173;1316;140608;-73
2022/01/04 03:36:02;;;;;;;10.60;7.10;;;;;;;5.49;86.12;98530.95;208631;1316;140289;-82
2022/01/04 03:41:08;;;;;;;13.00;6.80;;;;;;;5.55;85.69;98525.88;208376;1318;140009;-71
2022/01/04 03:46:11;;;;;;;13.00;6.80;;;;;;;5.61;85.55;98515.12;208705;1316;141307;-71
2022/01/04 03:51:14;;;;;;;9.70;6.30;;;;;;;5.66;85.60;98517.02;208560;1316;141129;-73
2022/01/04 03:56:20;;;;;;;12.60;7.50;;;;;;;5.66;85.54;98512.48;208623;1317;141391;-68
2022/01/04 04:01:25;;;;;;;7.20;5.60;;;;;;;5.66;85.85;98510.21;207267;1315;140916;-69
2022/01/04 04:06:28;;;;;;;14.20;6.20;;;;;;;5.70;85.60;98507.88;207853;1319;141992;-69
2022/01/04 04:11:37;;;;;;;12.20;5.50;;;;;;;5.73;85.95;98500.48;207932;1316;140575;-69
2022/01/04 04:16:47;;;;;;;10.50;6.10;;;;;;;5.70;85.26;98493.42;207907;1317;140501;-69
2022/01/04 04:21:55;;;;;;;12.20;6.50;;;;;;;5.72;85.54;98476.88;207369;1316;142040;-68
2022/01/04 04:26:59;;;;;;;16.30;9.20;;;;;;;5.70;85.41;98490.00;208424;1316;141608;-69
2022/01/04 04:32:05;;;;;;;9.50;7.30;;;;;;;5.64;85.48;98484.05;207103;1318;141019;-68
2022/01/04 04:37:18;;;;;;;8.20;6.20;;;;;;;5.58;85.06;98486.09;206942;1318;141522;-69
2022/01/04 04:42:24;;;;;;;8.10;7.30;;;;;;;5.56;85.17;98480.43;206893;1318;141044;-69
2022/01/04 04:47:32;;;;;;;9.70;6.10;;;;;;;5.48;85.35;98478.27;208140;1315;139918;-69
2022/01/04 04:52:45;;;;;;;14.40;7.20;;;;;;;5.43;85.40;98465.01;207111;1317;140256;-70
2022/01/04 04:57:49;;;;;;;8.60;6.40;;;;;;;5.43;85.37;98465.42;207868;1318;140296;-71
2022/01/04 05:02:52;;;;;;;14.40;7.70;;;;;;;5.46;85.52;98456.98;206845;1319;140885;-69
2022/01/04 05:07:58;;;;;;;9.20;6.00;;;;;;;5.43;85.35;98451.21;207844;1316;140277;-69
2022/01/04 05:13:01;;;;;;;8.50;7.20;;;;;;;5.41;85.62;98446.30;207652;1316;139895;-69
2022/01/04 05:18:04;;;;;;;8.60;6.70;;;;;;;5.41;85.38;98446.36;208560;1316;141621;-68
2022/01/04 05:23:09;;;;;;;7.40;5.60;;;;;;;5.46;85.74;98449.21;207147;1316;140091;-70
2022/01/04 05:28:12;;;;;;;8.50;6.30;;;;;;;5.47;85.72;98440.98;208247;1315;140527;-69
2022/01/04 05:33:16;;;;;;;5.30;4.80;;;;;;;5.43;85.33;98431.82;208170;1317;140548;-69
2022/01/04 05:38:24;;;;;;;7.60;5.30;;;;;;;5.44;85.59;98426.19;207905;1317;140157;-71
2022/01/04 05:43:45;;;;;;;;;;;;;;;;;;;;;
2022/01/04 05:48:52;;;;;;;7.90;5.60;;;;;;;5.48;85.53;98410.52;208791;1319;139745;-69
2022/01/04 05:53:59;;;;;;;6.10;4.40;;;;;;;5.51;85.97;98407.90;203700;1317;5888142;-71
2022/01/04 05:59:11;;;;;;;5.50;4.70;;;;;;;5.53;85.27;98414.81;208999;1316;140694;-72
2022/01/04 06:04:18;;;;;;;3.80;3.40;;;;;;;5.54;85.51;98410.92;209030;1320;233628;-72
2022/01/04 06:09:26;;;;;;;5.50;4.30;;;;;;;5.53;85.41;98408.59;207506;1316;139702;-71
2022/01/04 06:19:55;;;;;;;5.20;4.10;;;;;;;5.51;85.34;98396.91;208364;1315;141679;-73
2022/01/04 06:25:02;;;;;;;5.80;3.70;;;;;;;5.51;85.39;98387.77;206985;1322;142264;-72
2022/01/04 06:30:10;;;;;;;9.30;5.50;;;;;;;5.52;85.81;98385.71;206842;1316;139349;-69
2022/01/04 06:35:25;;;;;;;;;;;;;;;;;;;;;
2022/01/04 06:40:29;;;;;;;4.70;3.10;;;;;;;5.49;85.87;98388.70;207458;1316;140800;-70
2022/01/04 06:45:35;;;;;;;4.60;4.10;;;;;;;5.53;85.96;98384.52;208022;1316;141131;-70
2022/01/04 06:50:38;;;;;;;5.30;3.40;;;;;;;5.58;86.03;98381.98;206834;1316;140593;-69
2022/01/04 06:55:41;;;;;;;8.00;4.20;;;;;;;5.59;85.74;98377.77;207208;1317;139492;-69
2022/01/04 07:00:44;;;;;;;5.80;4.10;;;;;;;5.61;85.90;98367.72;207277;1316;139690;-69
2022/01/04 07:05:47;;;;;;;6.30;4.00;;;;;;;5.65;85.99;98359.02;207027;1317;140226;-71
2022/01/04 07:10:50;;;;;;;4.10;3.30;;;;;;;5.67;86.00;98357.31;207071;1316;139256;-69
2022/01/04 07:16:00;;;;;;;4.10;3.70;;;;;;;5.65;85.73;98348.98;207700;1316;141455;-68
2022/01/04 07:21:11;;;;;;;4.70;4.00;;;;;;;5.69;85.91;98345.56;206740;1316;140023;-68
2022/01/04 07:26:18;;;;;;;7.50;5.60;;;;;;;5.75;86.16;98341.56;208214;1316;140520;-70
2022/01/04 07:31:25;;;;;;;6.40;3.70;;;;;;;5.78;86.12;98334.14;207805;1317;140104;-72
2022/01/04 07:36:30;;;;;;;3.60;2.90;;;;;;;5.84;86.36;98331.42;208072;1317;139232;-70
2022/01/04 07:41:34;;;;;;;6.30;3.80;;;;;;;5.94;86.01;98318.04;207655;1316;140992;-68
2022/01/04 07:46:37;;;;;;;6.30;3.70;;;;;;;6.04;86.29;98311.44;207611;1316;141289;-68
2022/01/04 07:51:43;;;;;;;5.50;3.80;;;;;;;6.06;85.63;98306.52;207196;1316;141051;-68
2022/01/04 07:56:45;;;;;;;5.10;4.10;;;;;;;6.06;85.97;98295.71;208161;1317;140493;-71
2022/01/04 08:01:54;;;;;;;6.60;4.20;;;;;;;6.08;85.68;98283.41;207361;1316;164421;-68
2022/01/04 08:06:56;;;;;;;8.50;5.10;;;;;;;6.09;85.84;98274.19;208653;1316;142197;-68
2022/01/04 08:12:04;;;;;;;6.70;5.10;;;;;;;6.13;86.07;98268.18;208400;1317;141418;-68
2022/01/04 08:17:06;;;;;;;6.30;4.10;;;;;;;6.18;85.81;98257.88;208069;1318;140834;-69
2022/01/04 08:22:09;;;;;;;6.30;4.60;;;;;;;6.23;86.00;98248.29;208183;1316;141484;-70
2022/01/04 08:27:12;;;;;;;11.30;6.60;;;;;;;6.30;85.16;98230.45;207198;1317;142592;-70
2022/01/04 08:32:19;;;;;;;9.00;5.40;;;;;;;6.36;85.60;98216.42;207966;1318;140080;-72
2022/01/04 08:37:26;;;;;;;6.30;5.30;;;;;;;6.45;85.56;98206.08;207848;1317;139216;-74
2022/01/04 08:42:35;;;;;;;10.30;5.80;;;;;;;6.53;85.24;98193.06;208459;1315;140539;-72
2022/01/04 08:47:41;;;;;;;11.10;6.50;;;;;;;6.63;85.33;98186.41;207196;1316;142586;-72
2022/01/04 08:52:44;;;;;;;4.80;4.20;;;;;;;6.74;85.57;98180.80;206936;1316;143725;-73
2022/01/04 08:57:47;;;;;;;7.70;5.70;;;;;;;6.79;85.21;98179.64;206802;1316;141169;-69
2022/01/04 09:02:51;;;;;;;5.80;4.50;;;;;;;6.74;85.45;98171.48;207034;1317;141242;-72
2022/01/04 09:07:54;;;;;;;8.50;4.70;;;;;;;6.72;85.32;98169.19;207299;1316;139829;-69
2022/01/04 09:13:04;;;;;;;8.60;5.70;;;;;;;6.74;85.40;98170.59;207110;1316;141355;-71
2022/01/04 09:23:54;;;;;;;9.00;5.20;;;;;;;6.80;85.31;98159.84;207020;1316;141832;-71
2022/01/04 09:28:57;;;;;;;8.00;5.90;;;;;;;6.81;85.47;98154.02;207826;1316;141929;-71
2022/01/04 09:34:04;;;;;;;10.80;5.30;;;;;;;6.83;85.84;98146.00;208151;1316;142795;-67
2022/01/04 09:39:21;;;;;;;5.30;4.80;;;;;;;6.87;85.37;98143.66;208017;1318;141307;-67
2022/01/04 09:44:27;;;;;;;9.70;5.10;;;;;;;6.91;85.10;98136.13;209316;1317;141841;-71
2022/01/04 09:49:33;;;;;;;8.90;5.30;;;;;;;6.93;85.43;98125.14;209053;1317;142197;-71
2022/01/04 09:54:39;;;;;;;6.80;5.30;;;;;;;6.99;85.49;98115.56;208452;1317;140192;-69
2022/01/04 09:59:49;;;;;;;9.80;5.20;;;;;;;7.06;84.88;98103.05;209391;1316;142251;-70
2022/01/04 10:04:56;;;;;;;8.10;6.20;;;;;;;7.11;84.76;98095.83;208059;1316;140295;-72
2022/01/04 10:10:05;;;;;;;7.30;5.50;;;;;;;7.17;85.04;98092.29;208642;1319;140631;-73
2022/01/04 10:15:12;;;;;;;10.00;5.90;;;;;;;7.21;84.98;98091.73;208405;1318;139863;-73
2022/01/04 10:20:28;;;;;;;;;;;;;;;;;;;;;
2022/01/04 10:25:32;;;;;;;16.60;6.90;;;;;;;7.31;84.65;98081.48;208498;1315;127943;-71
2022/01/04 10:30:39;;;;;;;15.30;7.00;;;;;;;7.34;84.45;98066.38;208514;1316;139920;-72
2022/01/04 10:35:46;;;;;;;10.50;7.00;;;;;;;7.42;84.99;98056.73;206803;1317;139986;-71
2022/01/04 10:41:05;;;;;;;13.00;7.40;;;;;;;7.53;85.08;98050.45;207320;1316;140768;-72
2022/01/04 10:46:08;;;;;;;9.50;6.50;;;;;;;7.59;84.77;98038.35;207739;1317;140417;-74
2022/01/04 10:51:16;;;;;;;8.90;5.40;;;;;;;7.58;84.38;98029.90;207615;1316;140361;-72
2022/01/04 10:56:30;;;;;;;9.60;6.30;;;;;;;7.55;84.48;98016.37;206971;1317;140028;-72
2022/01/04 11:01:55;;;;;;;9.40;6.00;;;;;;;7.60;85.04;98004.27;207364;1312;141033;-74
2022/01/04 11:07:01;;;;;;;7.90;5.60;;;;;;;7.67;84.82;98000.23;207048;1317;141153;-71
2022/01/04 11:12:06;;;;;;;8.70;6.20;;;;;;;7.67;84.92;97990.59;208921;1316;140581;-74
2022/01/04 11:17:11;;;;;;;8.00;6.40;;;;;;;7.62;84.79;97983.48;207675;1316;139781;-71
2022/01/04 11:22:14;;;;;;;9.30;6.10;;;;;;;7.60;84.90;97973.50;206962;1316;139395;-69
2022/01/04 11:27:18;;;;;;;9.00;6.10;;;;;;;7.56;84.84;97963.94;208267;1318;141534;-71
2022/01/04 11:32:26;;;;;;;14.00;6.90;;;;;;;7.56;84.88;97952.84;207987;1317;140762;-70
2022/01/04 11:37:34;;;;;;;14.70;7.80;;;;;;;7.54;84.56;97935.86;208019;1317;161248;-69
2022/01/04 11:42:41;;;;;;;12.40;7.80;;;;;;;7.54;85.03;97929.83;208184;1313;139956;-69
2022/01/04 11:47:52;;;;;;;10.20;6.60;;;;;;;7.59;84.99;97906.84;207069;1316;234335;-69
2022/01/04 11:52:58;;;;;;;13.00;7.30;;;;;;;7.69;85.40;97892.90;207140;1316;140975;-71
2022/01/04 11:58:20;;;;;;;11.40;8.00;;;;;;;7.67;84.74;97881.33;207749;1313;139930;-69
2022/01/04 12:03:36;;;;;;;13.80;8.10;;;;;;;7.68;85.08;97865.84;207417;1318;140835;-69
2022/01/04 12:08:54;;;;;;;10.10;7.40;;;;;;;7.73;85.15;97847.30;208908;1318;141616;-70
2022/01/04 12:14:04;;;;;;;11.70;7.30;;;;;;;7.78;85.21;97830.39;208841;1316;141851;-70
2022/01/04 12:19:15;;;;;;;12.80;7.40;;;;;;;7.83;84.97;97816.13;208483;1316;140898;-72
2022/01/04 12:24:24;;;;;;;15.80;8.00;;;;;;;7.86;84.82;97800.86;208631;1316;139796;-71
2022/01/04 12:29:33;;;;;;;11.40;7.40;;;;;;;7.93;85.15;97782.98;207231;1316;140080;-71
2022/01/04 12:34:38;;;;;;;13.30;9.90;;;;;;;8.00;84.89;97772.61;207196;1315;141015;-68
2022/01/04 12:39:41;;;;;;;8.80;6.90;;;;;;;7.95;84.90;97762.88;207929;1316;141506;-71
2022/01/04 12:44:51;;;;;;;12.20;6.80;;;;;;;8.00;84.93;97758.02;207110;1316;140558;-72
2022/01/04 12:50:05;;;;;;;10.60;7.80;;;;;;;8.04;85.09;97755.11;207322;1318;139873;-69
2022/01/04 12:55:11;;;;;;;11.70;6.30;;;;;;;8.10;85.01;97744.13;206735;1316;139795;-70
2022/01/04 13:00:19;;;;;;;7.90;6.90;;;;;;;8.15;85.03;97734.78;207079;1316;140099;-71
2022/01/04 13:05:24;;;;;;;11.50;7.10;;;;;;;8.18;85.20;97724.38;206991;1312;140870;-71
2022/01/04 13:10:48;;;;;;;8.40;7.30;;;;;;;8.15;85.18;97719.92;207372;1316;141898;-74
2022/01/04 13:15:55;;;;;;;10.00;7.60;;;;;;;8.10;84.81;97729.52;207578;1313;139622;-70
2022/01/04 13:21:06;;;;;;;10.20;6.50;;;;;;;8.06;85.09;97729.05;208474;1315;140278;-71
2022/01/04 13:26:34;;;;;;;9.60;6.60;;;;;;;8.05;85.10;97718.13;207127;1315;142424;-70
2022/01/04 13:31:36;;;;;;;8.00;7.10;;;;;;;8.02;84.95;97709.85;207479;1315;140907;-73
2022/01/04 13:36:45;;;;;;;10.70;7.20;;;;;;;8.03;85.34;97699.45;206970;1316;141453;-72
2022/01/04 13:41:48;;;;;;;10.30;8.20;;;;;;;7.99;85.18;97680.40;207967;1316;140566;-73
2022/01/04 13:47:23;;;;;;;10.00;7.80;;;;;;;7.98;85.24;97669.04;207618;1316;140620;-72
2022/01/04 13:52:31;;;;;;;7.40;6.70;;;;;;;7.91;84.58;97646.10;204926;1316;3895845;-72
2022/01/04 13:57:37;;;;;;;9.70;7.00;;;;;;;7.90;84.84;97624.82;208636;1316;141781;-72
2022/01/04 14:02:52;;;;;;;;;;;;;;;;;;;;;
2022/01/04 14:08:02;;;;;;;11.20;8.00;;;;;;;7.98;85.41;97613.06;208355;1317;140943;-71
2022/01/04 14:13:05;;;;;;;7.70;7.00;;;;;;;7.97;84.89;97605.69;207392;1318;141383;-70
2022/01/04 14:18:11;;;;;;;8.50;6.70;;;;;;;7.98;85.26;97603.25;208688;1318;143306;-68
2022/01/04 14:23:38;;;;;;;10.80;7.40;;;;;;;8.00;84.83;97592.42;209268;1318;140719;-70
2022/01/04 14:28:45;;;;;;;12.40;9.70;;;;;;;7.94;84.76;97568.78;209251;1316;142387;-71
2022/01/04 14:33:48;;;;;;;17.30;8.30;;;;;;;7.89;84.47;97552.77;209110;1318;141315;-70
2022/01/04 14:38:51;;;;;;;16.80;9.70;;;;;;;7.86;84.51;97549.60;207443;1315;142760;-73
2022/01/04 14:43:55;;;;;;;12.20;8.70;;;;;;;7.84;84.92;97543.45;208095;1316;140222;-78
2022/01/04 14:49:04;;;;;;;10.20;9.00;;;;;;;7.75;84.78;97540.87;207328;1318;140756;-70
2022/01/04 14:54:07;;;;;;;13.10;9.00;;;;;;;7.72;84.94;97539.34;207272;1317;140787;-71
2022/01/04 14:59:12;;;;;;;14.40;9.40;;;;;;;7.61;84.62;97521.98;207203;1315;142958;-71
2022/01/04 15:04:18;;;;;;;16.60;12.70;;;;;;;7.54;84.80;97510.71;207469;1316;142022;-69
2022/01/04 15:09:21;;;;;;;16.90;12.40;;;;;;;7.47;84.79;97502.23;207118;1315;141484;-72
2022/01/04 15:14:25;;;;;;;19.90;13.50;;;;;;;7.36;84.75;97498.29;207604;1316;142446;-73
2022/01/04 15:19:29;;;;;;;13.30;9.80;;;;;;;7.39;85.67;97490.11;207090;1315;141942;-71
2022/01/04 15:24:33;;;;;;;16.80;10.80;;;;;;;7.38;85.21;97474.48;207763;1316;141198;-77
2022/01/04 15:29:37;;;;;;;13.10;11.70;;;;;;;7.34;85.34;97457.67;207457;1316;141677;-73
2022/01/04 15:34:41;;;;;;;16.20;10.00;;;;;;;7.38;85.65;97451.95;207304;1315;141299;-74
2022/01/04 15:39:45;;;;;;;18.50;12.20;;;;;;;7.38;85.75;97466.52;208419;1315;141177;-67
2022/01/04 15:44:47;;;;;;;14.10;10.20;;;;;;;7.37;85.88;97475.91;208355;1318;142397;-69
2022/01/04 15:49:51;;;;;;;17.00;12.60;;;;;;;7.37;85.81;97472.20;207263;1315;153436;-72
2022/01/04 15:54:54;;;;;;;13.70;9.80;;;;;;;7.38;85.93;97465.57;207226;1316;141431;-68
2022/01/04 15:59:57;;;;;;;14.00;10.30;;;;;;;7.42;86.00;97452.10;208310;1317;141947;-72
2022/01/04 16:05:10;;;;;;;12.70;9.50;;;;;;;7.48;86.18;97437.88;207148;1316;143747;-72
2022/01/04 16:10:14;;;;;;;12.80;9.50;;;;;;;7.52;86.18;97437.13;208074;1316;141798;-76
2022/01/04 16:15:21;;;;;;;10.60;8.40;;;;;;;7.51;86.21;97425.52;208410;1318;140337;-72
2022/01/04 16:25:53;;;;;;;13.20;8.40;;;;;;;7.73;86.70;97406.31;207840;1314;140041;-80
2022/01/04 16:30:56;;;;;;;12.40;9.20;;;;;;;7.73;86.37;97402.66;208375;1318;140972;-80
2022/01/04 16:35:59;;;;;;;12.90;9.40;;;;;;;7.77;86.30;97400.69;208281;1318;142664;-78
2022/01/04 16:41:08;;;;;;;12.30;9.30;;;;;;;7.84;86.37;97392.33;208785;1318;142516;-77
2022/01/04 16:46:10;;;;;;;12.40;9.40;;;;;;;7.83;86.43;97386.38;207222;1316;141404;-77
2022/01/04 16:51:14;;;;;;;12.20;8.60;;;;;;;7.83;86.15;97376.79;207732;1316;141109;-77
2022/01/04 16:56:16;;;;;;;14.90;9.00;;;;;;;7.85;86.50;97376.04;208525;1316;141856;-70
2022/01/04 17:01:44;;;;;;;13.00;8.50;;;;;;;7.86;86.20;97370.46;206975;1315;141911;-76
2022/01/04 17:06:52;;;;;;;13.40;8.70;;;;;;;7.85;86.14;97362.83;208589;1315;140935;-77
2022/01/04 17:12:08;;;;;;;11.70;8.80;;;;;;;7.82;86.19;97356.11;207504;1316;140996;-77
2022/01/04 17:17:11;;;;;;;11.20;8.10;;;;;;;7.83;86.53;97358.59;207194;1315;141553;-77
2022/01/04 17:22:16;;;;;;;14.40;8.00;;;;;;;7.82;86.71;97348.89;207378;1317;143357;-74
2022/01/04 17:27:39;;;;;;;11.90;7.50;;;;;;;7.76;86.57;97341.66;207322;1318;141035;-76
2022/01/04 17:32:42;;;;;;;11.00;7.40;;;;;;;7.75;86.46;97333.39;207648;1316;140822;-75
2022/01/04 17:37:44;;;;;;;9.10;6.80;;;;;;;7.76;86.60;97335.18;208040;1316;142230;-71
2022/01/04 17:43:00;;;;;;;10.70;7.80;;;;;;;7.76;86.87;97349.66;206968;1315;143493;-72
2022/01/04 17:48:06;;;;;;;15.50;9.00;;;;;;;7.77;87.15;97353.53;208201;1316;142266;-70
2022/01/04 17:53:10;;;;;;;11.70;7.30;;;;;;;7.82;86.92;97343.16;207397;1315;220654;-70
2022/01/04 17:58:14;;;;;;;8.60;7.20;;;;;;;7.88;87.24;97329.39;207323;1316;143220;-68
2022/01/04 18:03:25;;;;;;;10.40;6.90;;;;;;;7.92;86.86;97308.09;207065;1315;142392;-71
2022/01/04 18:08:52;;;;;;;12.40;7.60;;;;;;;7.89;86.80;97308.64;208166;1316;143394;-69
2022/01/04 18:13:58;;;;;;;11.00;8.90;;;;;;;7.89;87.27;97312.89;207115;1315;141009;-70
2022/01/04 18:19:02;;;;;;;12.80;7.10;;;;;;;7.90;87.30;97313.41;209520;1315;141185;-71
2022/01/04 18:24:08;;;;;;;11.10;7.10;;;;;;;7.94;87.19;97309.45;207871;1316;141982;-70
2022/01/04 18:29:13;;;;;;;10.90;6.20;;;;;;;7.94;87.16;97304.21;209223;1317;142631;-71
2022/01/04 18:34:18;;;;;;;9.50;6.60;;;;;;;7.96;87.10;97306.67;208064;1316;232676;-70
2022/01/04 18:39:22;;;;;;;8.90;6.00;;;;;;;8.00;86.90;97313.00;209346;1316;164632;-71
2022/01/04 18:44:25;;;;;;;9.90;7.50;;;;;;;8.05;87.30;97304.48;209538;1316;140535;-70
2022/01/04 18:49:29;;;;;;;7.70;6.90;;;;;;;8.08;87.24;97297.98;207841;1316;141298;-73
2022/01/04 18:54:44;;;;;;;9.60;6.40;;;;;;;8.09;87.00;97298.34;208547;1316;141378;-73
2022/01/04 18:59:55;;;;;;;8.80;6.60;;;;;;;8.09;86.97;97300.36;207518;1316;143211;-72
2022/01/04 19:05:01;;;;;;;8.90;6.90;;;;;;;8.11;87.01;97310.11;207581;1316;141290;-74
2022/01/04 19:10:05;;;;;;;11.50;7.80;;;;;;;8.15;87.27;97344.95;207583;1316;140918;-73
2022/01/04 19:15:10;;;;;;;11.80;10.40;;;;;;;8.10;86.88;97369.14;207286;1315;163284;-71
2022/01/04 19:20:13;;;;;;;10.60;7.80;;;;;;;8.06;86.93;97370.05;206977;1318;142542;-76
2022/01/04 19:25:18;;;;;;;13.10;9.50;;;;;;;8.03;86.88;97373.68;206891;1318;141802;-75
2022/01/04 19:30:23;;;;;;;9.30;6.90;;;;;;;7.89;86.67;97373.20;207507;1318;142323;-74
2022/01/04 19:40:51;;;;;;;8.50;7.60;;;;;;;7.72;86.54;97390.79;206997;1317;141513;-73
2022/01/04 19:45:55;;;;;;;9.50;7.60;;;;;;;7.68;86.53;97392.34;206955;1316;142714;-73
2022/01/04 19:51:04;;;;;;;10.30;9.10;;;;;;;7.61;86.80;97397.69;208314;1315;140163;-72
2022/01/04 19:56:09;;;;;;;9.60;7.30;;;;;;;7.58;86.83;97402.06;207067;1317;140162;-75
2022/01/04 20:01:14;;;;;;;13.20;10.80;;;;;;;7.53;86.47;97420.05;207134;1318;235256;-77
2022/01/04 20:06:17;;;;;;;11.50;8.30;;;;;;;7.50;87.04;97431.09;208181;1316;141597;-76
2022/01/04 20:11:21;;;;;;;13.10;9.00;;;;;;;7.50;86.91;97443.17;206748;1316;167524;-77
2022/01/04 20:16:24;;;;;;;12.10;8.00;;;;;;;7.48;86.78;97462.90;207258;1317;143680;-77
2022/01/04 20:21:28;;;;;;;10.10;6.90;;;;;;;7.37;86.39;97487.15;207285;1319;141013;-72
2022/01/04 20:26:31;;;;;;;5.40;4.70;;;;;;;7.15;85.55;97516.13;208668;1316;140424;-74
2022/01/04 20:31:40;;;;;;;8.90;6.80;;;;;;;6.93;85.14;97536.27;207636;1316;140726;-74
2022/01/04 20:36:43;;;;;;;5.90;4.70;;;;;;;6.76;85.47;97546.15;207784;1316;141779;-73
2022/01/04 20:41:47;;;;;;;11.10;6.40;;;;;;;6.61;85.22;97558.74;209416;1319;140770;-73
2022/01/04 20:46:50;;;;;;;10.90;7.30;;;;;;;6.50;85.59;97576.17;208895;1316;141959;-75
2022/01/04 20:51:53;;;;;;;10.30;6.10;;;;;;;6.46;85.48;97585.38;209380;1316;142820;-72
2022/01/04 20:56:56;;;;;;;10.20;7.40;;;;;;;6.42;85.61;97581.19;208780;1318;142573;-70
2022/01/04 21:02:00;;;;;;;12.90;6.90;;;;;;;6.40;85.48;97576.85;209268;1318;140357;-74
2022/01/04 21:07:04;;;;;;;9.40;6.90;;;;;;;6.37;85.16;97583.46;207832;1318;140703;-73
2022/01/04 21:12:07;;;;;;;7.50;6.20;;;;;;;6.29;85.25;97584.96;207700;1318;141763;-74
2022/01/04 21:17:10;;;;;;;9.50;6.80;;;;;;;6.25;85.35;97603.14;207843;1316;141245;-72
2022/01/04 21:22:14;;;;;;;10.50;7.30;;;;;;;6.20;84.96;97606.92;207495;1316;142473;-70
2022/01/04 21:27:18;;;;;;;8.80;6.10;;;;;;;6.16;85.60;97600.77;207106;1317;140989;-71
2022/01/04 21:32:21;;;;;;;12.80;6.70;;;;;;;6.19;85.55;97608.02;208256;1317;142038;-69
2022/01/04 21:37:31;;;;;;;10.30;6.80;;;;;;;6.20;85.56;97632.85;207713;1318;223674;-73
2022/01/04 21:42:34;;;;;;;11.80;5.90;;;;;;;6.13;85.43;97644.77;207133;1316;141207;-72
2022/01/04 21:47:38;;;;;;;12.20;6.20;;;;;;;6.04;85.15;97650.35;206741;1316;140269;-71
2022/01/04 21:52:41;;;;;;;8.60;7.70;;;;;;;5.94;84.86;97664.19;206570;1316;836240;-73
2022/01/04 21:57:44;;;;;;;9.70;6.50;;;;;;;5.87;85.38;97683.73;206720;1316;140649;-72
2022/01/04 22:02:47;;;;;;;9.60;7.60;;;;;;;5.86;85.36;97695.89;207626;1316;141056;-72
2022/01/04 22:07:56;;;;;;;11.70;7.50;;;;;;;5.89;85.42;97695.17;207960;1315;140438;-68
2022/01/04 22:12:59;;;;;;;8.70;5.70;;;;;;;5.90;85.45;97690.91;207108;1316;140356;-67
2022/01/04 22:18:02;;;;;;;10.70;6.70;;;;;;;5.86;85.07;97690.88;207464;1316;140515;-68
2022/01/04 22:23:06;;;;;;;11.50;6.70;;;;;;;5.79;85.11;97696.96;207746;1316;140793;-69
2022/01/04 22:28:10;;;;;;;11.70;6.50;;;;;;;5.81;85.73;97698.77;207261;1316;139926;-70
2022/01/04 22:33:15;;;;;;;8.90;5.50;;;;;;;5.79;85.50;97718.00;206744;1318;139357;-69
2022/01/04 22:38:19;;;;;;;11.10;5.90;;;;;;;5.76;85.26;97735.16;207416;1318;141306;-69
2022/01/04 22:43:25;;;;;;;13.60;9.40;;;;;;;5.74;85.03;97739.81;207279;1315;143438;-77
2022/01/04 22:48:29;;;;;;;14.90;9.40;;;;;;;5.72;85.45;97747.18;207000;1316;140130;-70
2022/01/04 22:53:35;;;;;;;9.00;8.00;;;;;;;5.70;85.35;97746.48;208370;1316;141831;-72
2022/01/04 22:58:48;;;;;;;8.20;6.10;;;;;;;5.69;85.73;97746.43;209064;1317;139343;-74
2022/01/04 23:03:51;;;;;;;13.00;7.90;;;;;;;5.72;85.41;97754.27;207537;1316;140708;-76
2022/01/04 23:08:56;;;;;;;15.80;6.80;;;;;;;5.74;85.54;97755.67;209107;1315;141346;-77
2022/01/04 23:14:02;;;;;;;11.20;7.90;;;;;;;5.74;85.29;97761.54;208855;1318;141173;-73
2022/01/04 23:19:06;;;;;;;11.80;8.20;;;;;;;5.75;85.37;97768.00;207724;1317;140853;-70
2022/01/04 23:24:16;;;;;;;13.60;8.20;;;;;;;5.72;85.52;97778.64;207543;1315;140615;-69
2022/01/04 23:29:22;;;;;;;15.40;9.50;;;;;;;5.65;85.11;97778.79;207579;1316;140034;-71
2022/01/04 23:34:25;;;;;;;15.10;10.20;;;;;;;5.61;85.25;97781.02;208713;1316;141616;-70
2022/01/04 23:39:29;;;;;;;13.80;9.10;;;;;;;5.59;85.36;97793.67;208524;1317;143735;-72
2022/01/04 23:44:53;;;;;;;16.40;11.00;;;;;;;5.59;85.45;97774.38;207388;1315;140776;-71
2022/01/04 23:49:57;;;;;;;24.80;14.20;;;;;;;5.55;85.55;97787.35;207700;1317;139912;-69
2022/01/04 23:55:13;;;;;;;19.00;12.00;;;;;;;5.53;85.71;97782.30;207096;1317;139932;-69
